createdAt,value
2019-03-29T00:02:24.880Z,81.19
2019-03-29T00:04:57.736Z,81.49
2019-03-29T00:07:39.542Z,81.21
2019-03-29T00:10:05.325Z,80.85
2019-03-29T00:12:38.058Z,81.67
2019-03-29T00:15:11.270Z,81.35
2019-03-29T00:17:44.161Z,80.91
2019-03-29T00:20:17.022Z,80.67
2019-03-29T00:22:50.122Z,81.02
2019-03-29T00:25:24.036Z,80.60
2019-03-29T00:27:57.089Z,81.21
2019-03-29T00:30:29.716Z,81.28
2019-03-29T00:33:02.381Z,81.13
2019-03-29T00:35:35.002Z,80.62
2019-03-29T00:38:07.741Z,80.51
2019-03-29T00:40:40.405Z,80.36
2019-03-29T00:43:13.071Z,80.59
2019-03-29T00:45:45.838Z,80.39
2019-03-29T00:48:18.661Z,81.15
2019-03-29T00:50:52.286Z,81.22
2019-03-29T00:53:25.038Z,81.05
2019-03-29T00:55:58.063Z,81.57
2019-03-29T00:58:31.260Z,81.47
2019-03-29T01:01:04.383Z,81.12
2019-03-29T01:03:37.347Z,81.17
2019-03-29T01:06:11.311Z,81.10
2019-03-29T01:08:44.205Z,81.04
2019-03-29T01:11:17.177Z,80.78
2019-03-29T01:13:50.253Z,81.16
2019-03-29T01:16:23.734Z,81.26
2019-03-29T01:18:56.420Z,81.03
2019-03-29T01:21:29.077Z,80.99
2019-03-29T01:24:01.752Z,80.96
2019-03-29T01:26:34.497Z,80.79
2019-03-29T01:29:07.169Z,81.10
2019-03-29T01:31:41.173Z,81.30
2019-03-29T01:34:14.202Z,81.32
2019-03-29T01:36:46.802Z,81.50
2019-03-29T01:39:19.548Z,81.76
2019-03-29T01:41:53.006Z,81.54
2019-03-29T01:44:26.021Z,81.96
2019-03-29T01:46:59.093Z,82.18
2019-03-29T01:49:31.981Z,82.27
2019-03-29T01:52:04.749Z,82.40
2019-03-29T01:54:37.435Z,82.47
2019-03-29T01:57:10.112Z,82.53
2019-03-29T01:59:43.233Z,82.20
2019-03-29T02:02:16.034Z,81.66
2019-03-29T02:04:48.686Z,81.89
2019-03-29T02:07:21.754Z,81.90
2019-03-29T02:09:54.625Z,81.66
2019-03-29T02:12:27.338Z,81.59
2019-03-29T02:15:00.034Z,81.84
2019-03-29T02:17:32.756Z,82.04
2019-03-29T02:20:05.956Z,82.58
2019-03-29T02:22:38.539Z,82.94
2019-03-29T02:25:11.419Z,83.24
2019-03-29T02:27:44.301Z,83.00
2019-03-29T02:30:17.529Z,83.10
2019-03-29T02:32:50.196Z,83.31
2019-03-29T02:35:22.922Z,83.34
2019-03-29T02:37:56.556Z,83.25
2019-03-29T02:40:29.825Z,83.32
2019-03-29T02:43:02.459Z,83.09
2019-03-29T02:45:35.133Z,83.02
2019-03-29T02:48:07.864Z,82.86
2019-03-29T02:50:40.609Z,82.05
2019-03-29T02:53:13.346Z,82.04
2019-03-29T02:55:46.004Z,82.45
2019-03-29T02:58:18.795Z,82.41
2019-03-29T03:00:51.495Z,82.53
2019-03-29T03:03:24.198Z,82.12
2019-03-29T03:05:56.965Z,82.04
2019-03-29T03:08:32.956Z,82.10
2019-03-29T03:11:04.284Z,82.12
2019-03-29T03:13:36.820Z,82.16
2019-03-29T03:16:10.833Z,82.55
2019-03-29T03:18:43.461Z,82.66
2019-03-29T03:21:16.106Z,82.92
2019-03-29T03:23:48.677Z,83.33
2019-03-29T03:26:21.492Z,83.43
2019-03-29T03:28:54.041Z,83.95
2019-03-29T03:31:26.749Z,83.76
2019-03-29T03:33:59.479Z,84.28
2019-03-29T03:36:32.074Z,84.01
2019-03-29T03:39:07.257Z,84.18
2019-03-29T03:41:39.897Z,83.81
2019-03-29T03:44:13.602Z,83.07
2019-03-29T03:46:46.202Z,83.30
2019-03-29T03:49:18.901Z,83.54
2019-03-29T03:51:51.565Z,82.94
2019-03-29T03:54:24.541Z,83.07
2019-03-29T03:56:57.702Z,83.04
2019-03-29T03:59:32.451Z,83.59
2019-03-29T04:02:04.958Z,83.10
2019-03-29T04:04:38.099Z,83.25
2019-03-29T04:07:10.762Z,84.04
2019-03-29T04:09:50.133Z,83.63
2019-03-29T04:12:17.807Z,83.95
2019-03-29T04:14:50.310Z,84.61
2019-03-29T04:17:22.895Z,85.07
2019-03-29T04:19:56.354Z,84.66
2019-03-29T04:22:28.877Z,84.78
2019-03-29T04:25:01.363Z,84.71
2019-03-29T04:27:33.857Z,84.83
2019-03-29T04:30:06.742Z,85.40
2019-03-29T04:32:39.944Z,85.61
2019-03-29T04:35:12.517Z,85.39
2019-03-29T04:37:45.021Z,85.25
2019-03-29T04:40:17.517Z,85.53
2019-03-29T04:42:50.128Z,85.83
2019-03-29T04:45:22.642Z,85.88
2019-03-29T04:47:55.136Z,85.83
2019-03-29T04:50:27.641Z,85.84
2019-03-29T04:53:01.914Z,86.00
2019-03-29T04:55:34.519Z,86.22
2019-03-29T04:58:07.114Z,86.42
2019-03-29T05:00:39.680Z,86.58
2019-03-29T05:03:12.345Z,86.65
2019-03-29T05:05:44.923Z,86.89
2019-03-29T05:08:17.419Z,87.04
2019-03-29T05:10:50.021Z,87.08
2019-03-29T05:13:22.524Z,87.36
2019-03-29T05:15:55.041Z,87.27
2019-03-29T05:18:27.534Z,87.23
2019-03-29T05:21:00.045Z,87.50
2019-03-29T05:23:32.541Z,87.65
2019-03-29T05:26:05.124Z,87.79
2019-03-29T05:28:37.627Z,87.72
2019-03-29T05:31:10.881Z,87.92
2019-03-29T05:33:43.390Z,88.16
2019-03-29T05:36:15.877Z,87.93
2019-03-29T05:38:48.669Z,88.62
2019-03-29T05:41:22.559Z,88.30
2019-03-29T05:43:55.061Z,88.15
2019-03-29T05:46:27.876Z,88.24
2019-03-29T05:49:00.361Z,88.20
2019-03-29T05:51:32.942Z,88.04
2019-03-29T05:54:05.428Z,88.04
2019-03-29T05:56:38.006Z,88.54
2019-03-29T05:59:11.064Z,88.48
2019-03-29T06:01:44.011Z,88.29
2019-03-29T06:04:17.030Z,88.17
2019-03-29T06:06:49.647Z,88.48
2019-03-29T06:09:22.156Z,88.19
2019-03-29T06:11:54.659Z,87.86
2019-03-29T06:14:27.181Z,87.87
2019-03-29T06:16:59.694Z,87.77
2019-03-29T06:19:32.311Z,87.53
2019-03-29T06:22:04.987Z,87.38
2019-03-29T06:24:37.523Z,87.22
2019-03-29T06:27:10.556Z,87.15
2019-03-29T06:29:43.052Z,87.32
2019-03-29T06:32:15.562Z,87.43
2019-03-29T06:34:48.058Z,87.38
2019-03-29T06:37:22.815Z,87.40
2019-03-29T06:39:56.578Z,87.44
2019-03-29T06:42:29.093Z,87.39
2019-03-29T06:45:01.656Z,87.23
2019-03-29T06:47:34.186Z,86.90
2019-03-29T06:50:07.246Z,86.83
2019-03-29T06:52:40.095Z,86.58
2019-03-29T06:55:13.039Z,86.81
2019-03-29T06:57:45.849Z,86.22
2019-03-29T07:00:18.579Z,85.85
2019-03-29T07:02:51.300Z,86.11
2019-03-29T07:05:23.885Z,86.29
2019-03-29T07:07:56.393Z,86.23
2019-03-29T07:10:28.933Z,85.68
2019-03-29T07:13:01.446Z,85.02
2019-03-29T07:15:33.945Z,84.84
2019-03-29T07:18:07.517Z,84.87
2019-03-29T07:20:40.386Z,85.04
2019-03-29T07:23:12.878Z,84.81
2019-03-29T07:25:45.365Z,83.50
2019-03-29T07:28:17.905Z,84.03
2019-03-29T07:30:50.417Z,84.46
2019-03-29T07:33:23.075Z,83.46
2019-03-29T07:35:55.624Z,83.03
2019-03-29T07:38:28.510Z,83.27
2019-03-29T07:41:01.005Z,82.83
2019-03-29T07:43:33.593Z,81.85
2019-03-29T07:46:06.858Z,81.57
2019-03-29T07:48:40.526Z,80.89
2019-03-29T07:51:13.250Z,81.62
2019-03-29T07:53:45.881Z,80.91
2019-03-29T07:56:18.419Z,80.70
2019-03-29T07:58:50.992Z,79.90
2019-03-29T08:01:24.492Z,79.85
2019-03-29T08:03:57.585Z,79.98
2019-03-29T08:06:30.255Z,79.59
2019-03-29T08:09:03.531Z,78.97
2019-03-29T08:11:46.206Z,77.45
2019-03-29T08:14:10.928Z,77.28
2019-03-29T08:16:43.446Z,77.61
2019-03-29T08:19:16.273Z,76.98
2019-03-29T08:21:48.956Z,77.61
2019-03-29T08:24:21.742Z,76.37
2019-03-29T08:26:54.263Z,76.04
2019-03-29T08:29:27.422Z,75.91
2019-03-29T08:32:00.001Z,76.48
2019-03-29T08:34:35.751Z,75.53
2019-03-29T08:37:06.711Z,74.70
2019-03-29T08:39:39.599Z,75.44
2019-03-29T08:42:12.120Z,74.08
2019-03-29T08:44:44.710Z,74.54
2019-03-29T08:47:17.496Z,75.29
2019-03-29T08:49:50.026Z,73.72
2019-03-29T08:52:22.623Z,73.26
2019-03-29T08:54:55.127Z,71.74
2019-03-29T08:57:27.812Z,72.50
2019-03-29T09:00:00.436Z,71.88
2019-03-29T09:02:33.438Z,71.75
2019-03-29T09:05:06.862Z,70.91
2019-03-29T09:07:45.104Z,71.74
2019-03-29T09:10:25.564Z,71.41
2019-03-29T09:12:58.216Z,70.54
2019-03-29T09:15:32.387Z,70.00
2019-03-29T09:18:04.965Z,69.21
2019-03-29T09:20:38.267Z,69.55
2019-03-29T09:23:10.841Z,68.88
2019-03-29T09:25:43.421Z,69.38
2019-03-29T09:28:16.094Z,67.51
2019-03-29T09:30:48.712Z,69.74
2019-03-29T09:33:21.723Z,67.42
2019-03-29T09:35:54.374Z,67.74
2019-03-29T09:38:26.940Z,66.21
2019-03-29T09:40:59.713Z,66.50
2019-03-29T09:43:32.432Z,65.52
2019-03-29T09:46:05.335Z,66.46
2019-03-29T09:48:37.932Z,66.60
2019-03-29T09:51:10.542Z,66.14
2019-03-29T09:53:43.456Z,66.30
2019-03-29T09:56:16.011Z,65.75
2019-03-29T09:58:48.565Z,65.62
2019-03-29T10:01:21.289Z,65.02
2019-03-29T10:03:53.832Z,64.08
2019-03-29T10:06:26.427Z,64.44
2019-03-29T10:08:58.978Z,65.84
2019-03-29T10:11:32.260Z,63.48
2019-03-29T10:14:05.148Z,63.98
2019-03-29T10:16:38.190Z,62.44
2019-03-29T10:19:10.814Z,63.03
2019-03-29T10:21:43.513Z,62.58
2019-03-29T10:24:16.472Z,62.42
2019-03-29T10:26:49.349Z,63.12
2019-03-29T10:29:22.289Z,62.02
2019-03-29T10:31:54.913Z,61.28
2019-03-29T10:34:27.616Z,62.62
2019-03-29T10:37:00.186Z,61.13
2019-03-29T10:39:35.827Z,60.24
2019-03-29T10:42:08.739Z,61.67
2019-03-29T10:44:42.258Z,59.94
2019-03-29T10:47:14.810Z,60.45
2019-03-29T10:49:47.669Z,61.54
2019-03-29T10:52:21.315Z,61.23
2019-03-29T10:54:54.722Z,60.67
2019-03-29T10:57:27.477Z,60.61
2019-03-29T11:00:00.385Z,59.48
2019-03-29T11:02:33.131Z,60.24
2019-03-29T11:05:06.277Z,58.56
2019-03-29T11:07:38.917Z,59.34
2019-03-29T11:10:21.443Z,58.79
2019-03-29T11:12:54.658Z,59.78
2019-03-29T11:15:27.311Z,58.88
2019-03-29T11:18:00.023Z,57.81
2019-03-29T11:20:35.486Z,56.18
2019-03-29T11:23:08.994Z,57.05
2019-03-29T11:25:41.725Z,55.37
2019-03-29T11:28:14.720Z,55.65
2019-03-29T11:30:48.685Z,54.65
2019-03-29T11:33:22.887Z,54.11
2019-03-29T11:35:57.355Z,54.31
2019-03-29T11:38:30.250Z,53.75
2019-03-29T11:41:02.898Z,53.81
2019-03-29T11:43:36.529Z,53.75
2019-03-29T11:46:09.201Z,54.31
2019-03-29T11:48:43.665Z,53.85
2019-03-29T11:51:19.479Z,53.23
2019-03-29T11:53:51.999Z,54.38
2019-03-29T11:56:24.583Z,54.82
2019-03-29T11:58:59.392Z,55.26
2019-03-29T12:01:34.521Z,50.57
2019-03-29T12:04:07.261Z,52.64
2019-03-29T12:06:39.968Z,53.00
2019-03-29T12:09:12.886Z,51.28
2019-03-29T12:11:45.445Z,52.32
2019-03-29T12:14:22.537Z,51.50
2019-03-29T12:16:55.078Z,52.18
2019-03-29T12:19:27.709Z,50.59
2019-03-29T12:22:02.574Z,50.68
2019-03-29T12:24:36.605Z,50.77
2019-03-29T12:27:09.159Z,48.46
2019-03-29T12:29:42.040Z,49.63
2019-03-29T12:32:15.612Z,48.15
2019-03-29T12:34:48.440Z,48.46
2019-03-29T12:37:23.152Z,47.77
2019-03-29T12:40:01.825Z,47.51
2019-03-29T12:42:34.961Z,47.98
2019-03-29T12:45:07.862Z,45.90
2019-03-29T12:47:41.361Z,46.39
2019-03-29T12:50:14.261Z,48.40
2019-03-29T12:52:46.862Z,47.39
2019-03-29T12:55:19.626Z,48.04
2019-03-29T12:57:52.583Z,45.52
2019-03-29T13:00:25.387Z,47.95
2019-03-29T13:02:57.944Z,48.50
2019-03-29T13:05:30.466Z,48.62
2019-03-29T13:08:02.981Z,48.03
2019-03-29T13:10:35.648Z,47.85
2019-03-29T13:13:08.613Z,41.58
2019-03-29T13:15:41.215Z,40.74
2019-03-29T13:18:13.729Z,44.97
2019-03-29T13:20:46.393Z,45.32
2019-03-29T13:23:19.427Z,41.58
2019-03-29T13:25:51.973Z,43.78
2019-03-29T13:28:24.556Z,45.59
2019-03-29T13:30:57.516Z,45.42
2019-03-29T13:33:30.205Z,42.50
2019-03-29T13:36:02.827Z,43.53
2019-03-29T13:38:35.417Z,43.86
2019-03-29T13:41:08.054Z,42.11
2019-03-29T13:43:40.599Z,42.55
2019-03-29T13:46:13.477Z,42.68
2019-03-29T13:48:46.062Z,42.58
2019-03-29T13:51:18.674Z,42.53
2019-03-29T13:53:51.170Z,43.22
2019-03-29T13:56:23.753Z,42.91
2019-03-29T13:58:57.214Z,42.86
2019-03-29T14:01:29.731Z,41.45
2019-03-29T14:04:02.505Z,40.83
2019-03-29T14:06:35.020Z,40.86
2019-03-29T14:09:08.851Z,40.27
2019-03-29T14:11:41.398Z,40.27
2019-03-29T14:14:14.392Z,39.26
2019-03-29T14:16:47.110Z,40.07
2019-03-29T14:19:19.603Z,39.92
2019-03-29T14:21:52.133Z,39.68
2019-03-29T14:24:24.631Z,39.17
2019-03-29T14:26:57.230Z,39.26
2019-03-29T14:29:29.954Z,37.53
2019-03-29T14:32:02.567Z,38.79
2019-03-29T14:34:35.226Z,39.09
2019-03-29T14:37:08.165Z,38.65
2019-03-29T14:39:40.656Z,36.48
2019-03-29T14:42:14.370Z,36.45
2019-03-29T14:44:52.727Z,37.60
2019-03-29T14:47:21.595Z,37.04
2019-03-29T14:49:54.086Z,37.95
2019-03-29T14:52:26.586Z,34.24
2019-03-29T14:54:59.221Z,38.69
2019-03-29T14:57:31.823Z,36.87
2019-03-29T15:00:05.197Z,38.15
2019-03-29T15:02:38.183Z,36.65
2019-03-29T15:05:10.930Z,37.50
2019-03-29T15:07:44.372Z,36.79
2019-03-29T15:10:27.945Z,35.53
2019-03-29T15:13:01.536Z,36.79
2019-03-29T15:15:34.959Z,35.81
2019-03-29T15:18:07.647Z,36.06
2019-03-29T15:20:52.509Z,36.93
2019-03-29T15:23:14.430Z,37.34
2019-03-29T15:25:48.100Z,36.43
2019-03-29T15:28:20.693Z,36.63
2019-03-29T15:30:53.214Z,35.19
2019-03-29T15:33:26.299Z,36.67
2019-03-29T15:35:58.864Z,36.40
2019-03-29T15:38:31.383Z,36.37
2019-03-29T15:41:03.885Z,34.06
2019-03-29T15:43:36.384Z,35.37
2019-03-29T15:46:08.992Z,36.06
2019-03-29T15:48:41.511Z,34.93
2019-03-29T15:51:14.086Z,37.81
2019-03-29T15:53:46.597Z,36.05
2019-03-29T15:56:19.091Z,36.01
2019-03-29T15:58:51.855Z,35.74
2019-03-29T16:01:24.385Z,36.32
2019-03-29T16:03:56.868Z,34.69
2019-03-29T16:06:29.714Z,36.75
2019-03-29T16:09:02.223Z,36.11
2019-03-29T16:11:36.306Z,35.76
2019-03-29T16:14:10.297Z,35.10
2019-03-29T16:16:45.895Z,35.50
2019-03-29T16:19:17.320Z,36.07
2019-03-29T16:21:49.923Z,38.06
2019-03-29T16:24:22.687Z,36.77
2019-03-29T16:26:55.205Z,35.88
2019-03-29T16:29:27.696Z,35.75
2019-03-29T16:32:00.331Z,36.14
2019-03-29T16:34:32.914Z,36.08
2019-03-29T16:37:05.521Z,37.52
2019-03-29T16:39:38.028Z,37.16
2019-03-29T16:42:11.184Z,36.20
2019-03-29T16:44:43.694Z,36.87
2019-03-29T16:47:16.305Z,37.28
2019-03-29T16:49:48.781Z,38.06
2019-03-29T16:52:22.261Z,38.38
2019-03-29T16:54:54.836Z,39.00
2019-03-29T16:57:27.349Z,39.29
2019-03-29T17:00:00.394Z,39.83
2019-03-29T17:02:33.024Z,40.21
2019-03-29T17:05:06.347Z,39.68
2019-03-29T17:07:38.862Z,39.40
2019-03-29T17:10:11.669Z,40.00
2019-03-29T17:12:44.502Z,41.25
2019-03-29T17:15:17.155Z,42.01
2019-03-29T17:17:49.677Z,41.84
2019-03-29T17:20:23.181Z,42.95
2019-03-29T17:22:55.920Z,43.20
2019-03-29T17:25:28.576Z,43.09
2019-03-29T17:28:01.083Z,43.33
2019-03-29T17:30:46.415Z,43.38
2019-03-29T17:33:22.274Z,43.67
2019-03-29T17:35:53.676Z,44.62
2019-03-29T17:38:26.197Z,45.38
2019-03-29T17:40:58.856Z,46.05
2019-03-29T17:43:31.556Z,46.49
2019-03-29T17:46:15.606Z,46.74
2019-03-29T17:48:39.520Z,47.78
2019-03-29T17:51:12.151Z,48.63
2019-03-29T17:53:44.643Z,48.27
2019-03-29T17:56:17.244Z,48.93
2019-03-29T17:58:49.764Z,49.29
2019-03-29T18:01:22.278Z,49.27
2019-03-29T18:03:55.706Z,49.15
2019-03-29T18:06:28.354Z,49.84
2019-03-29T18:09:00.941Z,49.62
2019-03-29T18:11:35.034Z,50.42
2019-03-29T18:14:07.622Z,50.55
2019-03-29T18:16:40.114Z,51.40
2019-03-29T18:19:12.696Z,51.26
2019-03-29T18:21:45.253Z,51.80
2019-03-29T18:24:18.202Z,51.88
2019-03-29T18:26:50.820Z,52.21
2019-03-29T18:29:23.446Z,52.53
2019-03-29T18:31:56.294Z,53.46
2019-03-29T18:34:29.062Z,53.78
2019-03-29T18:37:02.189Z,54.57
2019-03-29T18:39:36.978Z,55.26
2019-03-29T18:42:10.786Z,55.82
2019-03-29T18:44:43.335Z,55.78
2019-03-29T18:47:15.888Z,55.70
2019-03-29T18:49:48.615Z,56.31
2019-03-29T18:52:21.132Z,56.62
2019-03-29T18:54:53.798Z,57.05
2019-03-29T18:57:26.441Z,57.49
2019-03-29T18:59:59.621Z,57.88
2019-03-29T19:02:32.200Z,57.89
2019-03-29T19:05:05.302Z,57.81
2019-03-29T19:07:38.290Z,58.37
2019-03-29T19:10:10.986Z,58.94
2019-03-29T19:12:43.607Z,59.33
2019-03-29T19:15:16.223Z,59.52
2019-03-29T19:17:49.236Z,59.70
2019-03-29T19:20:27.629Z,59.89
2019-03-29T19:22:56.733Z,60.21
2019-03-29T19:25:29.851Z,60.42
2019-03-29T19:28:02.448Z,60.73
2019-03-29T19:30:35.496Z,61.33
2019-03-29T19:33:08.304Z,61.53
2019-03-29T19:35:40.995Z,60.94
2019-03-29T19:38:13.972Z,61.27
2019-03-29T19:40:46.850Z,61.45
2019-03-29T19:43:19.556Z,61.34
2019-03-29T19:45:52.543Z,61.13
2019-03-29T19:48:25.672Z,61.03
2019-03-29T19:50:58.485Z,61.71
2019-03-29T19:53:34.239Z,62.61
2019-03-29T19:56:05.690Z,62.58
2019-03-29T19:58:38.621Z,63.04
2019-03-29T20:01:11.585Z,63.17
2019-03-29T20:03:44.319Z,63.21
2019-03-29T20:06:16.971Z,63.16
2019-03-29T20:08:49.889Z,63.66
2019-03-29T20:11:22.480Z,63.75
2019-03-29T20:13:55.255Z,63.38
2019-03-29T20:16:27.833Z,63.62
2019-03-29T20:19:00.511Z,64.02
2019-03-29T20:21:33.337Z,63.94
2019-03-29T20:24:05.983Z,64.26
2019-03-29T20:26:38.583Z,63.88
2019-03-29T20:29:11.586Z,64.08
2019-03-29T20:31:44.174Z,64.47
2019-03-29T20:34:16.804Z,64.40
2019-03-29T20:36:49.600Z,64.60
2019-03-29T20:39:22.143Z,64.55
2019-03-29T20:41:55.068Z,64.75
2019-03-29T20:44:27.798Z,64.29
2019-03-29T20:47:00.353Z,64.46
2019-03-29T20:49:32.917Z,64.76
2019-03-29T20:52:05.641Z,65.08
2019-03-29T20:54:38.297Z,65.52
2019-03-29T20:57:10.859Z,65.83
2019-03-29T20:59:43.462Z,65.89
2019-03-29T21:02:16.361Z,66.33
2019-03-29T21:04:48.965Z,65.73
2019-03-29T21:07:44.184Z,66.12
2019-03-29T21:10:17.677Z,66.36
2019-03-29T21:12:50.794Z,66.04
2019-03-29T21:15:23.945Z,66.30
2019-03-29T21:17:58.066Z,66.15
2019-03-29T21:20:31.615Z,65.11
2019-03-29T21:23:04.231Z,65.74
2019-03-29T21:25:37.052Z,66.08
2019-03-29T21:28:10.266Z,66.48
2019-03-29T21:30:42.783Z,67.26
2019-03-29T21:33:15.297Z,67.22
2019-03-29T21:35:48.324Z,67.04
2019-03-29T21:38:21.036Z,67.55
2019-03-29T21:40:53.570Z,66.07
2019-03-29T21:43:26.407Z,65.96
2019-03-29T21:45:59.071Z,66.14
2019-03-29T21:48:31.876Z,65.59
2019-03-29T21:51:04.410Z,65.62
2019-03-29T21:53:36.909Z,65.62
2019-03-29T21:56:10.403Z,66.22
2019-03-29T21:58:42.936Z,67.04
2019-03-29T22:01:15.457Z,67.19
2019-03-29T22:03:48.039Z,67.83
2019-03-29T22:06:20.718Z,67.95
2019-03-29T22:08:53.209Z,68.47
2019-03-29T22:11:26.883Z,69.18
2019-03-29T22:13:59.490Z,69.39
2019-03-29T22:16:32.392Z,68.59
2019-03-29T22:19:05.016Z,68.73
2019-03-29T22:21:37.872Z,68.49
2019-03-29T22:24:11.020Z,69.13
2019-03-29T22:26:43.547Z,69.01
2019-03-29T22:29:17.154Z,70.33
2019-03-29T22:31:49.669Z,69.42
2019-03-29T22:34:22.208Z,69.04
2019-03-29T22:36:55.156Z,68.80
2019-03-29T22:39:27.684Z,69.87
2019-03-29T22:42:00.322Z,70.65
2019-03-29T22:44:32.841Z,72.00
2019-03-29T22:47:05.439Z,72.12
2019-03-29T22:49:38.138Z,71.10
2019-03-29T22:52:11.021Z,70.14
2019-03-29T22:54:43.538Z,70.35
2019-03-29T22:57:16.367Z,69.77
2019-03-29T22:59:48.966Z,69.84
2019-03-29T23:02:21.892Z,69.79
2019-03-29T23:04:54.398Z,69.93
2019-03-29T23:07:27.012Z,70.69
2019-03-29T23:09:59.516Z,70.67
2019-03-29T23:12:32.330Z,70.18
2019-03-29T23:15:05.474Z,70.35
2019-03-29T23:17:37.993Z,70.62
2019-03-29T23:20:11.413Z,70.47
2019-03-29T23:22:43.936Z,70.23
2019-03-29T23:25:17.424Z,70.83
2019-03-29T23:27:50.090Z,71.26
2019-03-29T23:30:22.953Z,71.71
2019-03-29T23:32:55.544Z,71.97
2019-03-29T23:35:28.049Z,71.17
2019-03-29T23:38:00.585Z,71.92
2019-03-29T23:40:33.117Z,72.92
2019-03-29T23:43:05.717Z,74.36
2019-03-29T23:45:38.384Z,73.32
2019-03-29T23:48:11.289Z,73.96
2019-03-29T23:50:44.154Z,73.87
2019-03-29T23:53:16.749Z,73.74
2019-03-29T23:55:49.292Z,73.40
2019-03-29T23:58:21.807Z,73.40
